Time;durP1;ratioP1;P1;durP2;ratioP2;P2;SDS_P1;SDS_P2;PMS_P1;PMS_P2;Temp;Humidity;BMP_temperature;BMP_pressure;BME280_temperature;BME280_humidity;BME280_pressure;Samples;Min_cycle;Max_cycle;Signal;HPM_P1;HPM_P2
2024/04/20 00:01:02;;;;;;;13.00;4.45;;;5.10;99.90;;;;;;5383649;26;19993;-68
2024/04/20 00:03:28;;;;;;;12.25;4.63;;;5.10;99.90;;;;;;5383635;26;19988;-67
2024/04/20 00:05:54;;;;;;;14.20;5.43;;;5.10;99.90;;;;;;5383383;26;19992;-68
2024/04/20 00:08:19;;;;;;;13.98;4.97;;;5.00;99.90;;;;;;5383485;26;19993;-69
2024/04/20 00:10:45;;;;;;;13.32;4.97;;;5.00;99.90;;;;;;5383628;26;19992;-68
2024/04/20 00:13:10;;;;;;;16.00;4.78;;;5.00;99.90;;;;;;5383726;26;19988;-68
2024/04/20 00:15:41;;;;;;;16.17;5.65;;;4.90;99.90;;;;;;5383413;26;20065;-68
2024/04/20 00:18:07;;;;;;;11.88;5.32;;;4.90;99.90;;;;;;5383140;26;20024;-68
2024/04/20 00:20:32;;;;;;;13.65;5.07;;;4.90;99.90;;;;;;5383396;26;20373;-68
2024/04/20 00:22:59;;;;;;;18.27;6.07;;;4.90;99.90;;;;;;5383369;26;19988;-69
2024/04/20 00:25:25;;;;;;;17.02;5.85;;;4.80;99.90;;;;;;5383509;26;20003;-69
2024/04/20 00:27:51;;;;;;;11.02;5.38;;;4.80;99.90;;;;;;5383372;26;20007;-69
2024/04/20 00:30:17;;;;;;;13.73;5.30;;;4.70;99.90;;;;;;5383267;26;19992;-69
2024/04/20 00:32:44;;;;;;;13.75;5.82;;;4.60;99.90;;;;;;5383174;26;19992;-68
2024/04/20 00:35:11;;;;;;;12.15;5.88;;;4.60;99.90;;;;;;5383219;26;19988;-68
2024/04/20 00:37:37;;;;;;;15.13;6.18;;;4.70;99.90;;;;;;5383403;26;19992;-68
2024/04/20 00:40:03;;;;;;;13.27;6.00;;;4.60;99.90;;;;;;5383427;26;19996;-68
2024/04/20 00:42:29;;;;;;;16.48;6.40;;;4.60;99.90;;;;;;5383062;26;20007;-68
2024/04/20 00:44:54;;;;;;;12.90;6.18;;;4.60;99.90;;;;;;5383281;26;20010;-67
2024/04/20 00:47:20;;;;;;;10.82;5.97;;;4.50;99.90;;;;;;5383008;26;20062;-68
2024/04/20 00:49:46;;;;;;;12.57;5.70;;;4.50;99.90;;;;;;5382969;26;19999;-68
2024/04/20 00:52:12;;;;;;;15.93;6.63;;;4.50;99.90;;;;;;5382949;26;19994;-68
2024/04/20 00:54:38;;;;;;;12.90;6.18;;;4.60;99.90;;;;;;5382993;26;20393;-68
2024/04/20 00:57:05;;;;;;;29.05;7.28;;;4.60;99.90;;;;;;5382563;26;20003;-68
2024/04/20 00:59:31;;;;;;;18.77;7.35;;;4.60;99.90;;;;;;5382961;26;19996;-68
2024/04/20 01:01:57;;;;;;;16.80;7.32;;;4.60;99.90;;;;;;5382965;26;19992;-69
2024/04/20 01:04:23;;;;;;;19.40;7.40;;;4.50;99.90;;;;;;5383181;26;20442;-65
2024/04/20 01:06:48;;;;;;;20.90;7.70;;;4.50;99.90;;;;;;5382762;26;20069;-65
2024/04/20 01:09:14;;;;;;;18.25;7.47;;;4.60;99.90;;;;;;5382712;26;20070;-65
2024/04/20 01:11:40;;;;;;;16.75;7.97;;;4.60;99.90;;;;;;5382585;26;19992;-65
2024/04/20 01:14:06;;;;;;;14.98;7.22;;;4.60;99.90;;;;;;5382866;26;19992;-66
2024/04/20 01:16:32;;;;;;;16.73;7.70;;;4.60;99.90;;;;;;5382522;26;20308;-66
2024/04/20 01:18:59;;;;;;;19.63;8.05;;;4.60;99.90;;;;;;5382424;26;20007;-66
2024/04/20 01:21:25;;;;;;;22.70;8.05;;;4.60;99.90;;;;;;5382523;26;19992;-65
2024/04/20 01:23:58;;;;;;;20.33;8.63;;;4.60;99.90;;;;;;5382542;26;20038;-65
2024/04/20 01:26:23;;;;;;;26.10;7.97;;;4.60;99.90;;;;;;5382879;26;19988;-65
2024/04/20 01:28:49;;;;;;;21.77;8.20;;;4.40;99.90;;;;;;5381875;26;20007;-66
2024/04/20 01:31:15;;;;;;;28.23;9.27;;;4.60;99.90;;;;;;5382303;26;19988;-65
2024/04/20 01:33:40;;;;;;;20.52;8.50;;;4.60;99.90;;;;;;5382229;26;19992;-66
2024/04/20 01:36:06;;;;;;;24.27;8.32;;;4.60;99.90;;;;;;5382503;26;19993;-65
2024/04/20 01:38:32;;;;;;;17.88;8.18;;;4.60;99.90;;;;;;5382324;26;19992;-66
2024/04/20 01:40:57;;;;;;;15.05;8.27;;;4.60;99.90;;;;;;5382311;26;19996;-66
2024/04/20 01:43:23;;;;;;;18.65;7.18;;;4.60;99.90;;;;;;5382063;26;19988;-66
2024/04/20 01:45:49;;;;;;;18.35;8.18;;;4.60;99.90;;;;;;5382159;26;20007;-66
2024/04/20 01:48:14;;;;;;;16.80;7.75;;;4.50;99.90;;;;;;5382043;26;19992;-66
2024/04/20 01:50:40;;;;;;;23.02;8.65;;;4.30;99.90;;;;;;5381874;26;19992;-65
2024/04/20 01:53:05;;;;;;;15.02;7.68;;;4.50;99.90;;;;;;5382041;26;19993;-67
2024/04/20 01:55:31;;;;;;;19.30;7.38;;;4.40;99.90;;;;;;5381941;26;20008;-65
2024/04/20 01:57:57;;;;;;;18.30;7.75;;;4.40;99.90;;;;;;5381684;26;19988;-65
2024/04/20 02:00:22;;;;;;;17.05;7.35;;;4.30;99.90;;;;;;5382211;26;19992;-66
2024/04/20 02:02:49;;;;;;;17.27;8.57;;;4.40;99.90;;;;;;5382132;26;20003;-66
2024/04/20 02:05:15;;;;;;;21.77;8.43;;;4.30;99.90;;;;;;5382031;26;20457;-66
2024/04/20 02:07:40;;;;;;;21.42;7.55;;;4.20;99.90;;;;;;5381895;26;20003;-66
2024/04/20 02:10:06;;;;;;;13.07;7.45;;;4.20;99.90;;;;;;5382059;26;20396;-66
2024/04/20 02:12:32;;;;;;;25.38;7.90;;;4.20;99.90;;;;;;5381771;26;20007;-66
2024/04/20 02:14:58;;;;;;;13.63;8.10;;;4.20;99.90;;;;;;5381559;26;20311;-66
2024/04/20 02:17:25;;;;;;;16.85;7.63;;;4.20;99.90;;;;;;5381848;26;20003;-66
2024/04/20 02:19:51;;;;;;;20.52;8.25;;;4.20;99.90;;;;;;5381622;26;20357;-66
2024/04/20 02:22:17;;;;;;;13.43;8.10;;;4.20;99.90;;;;;;5381522;26;20003;-66
2024/04/20 02:24:42;;;;;;;19.35;8.00;;;4.20;99.90;;;;;;5381505;26;19988;-66
2024/04/20 02:27:08;;;;;;;23.42;9.15;;;4.10;99.90;;;;;;5381278;26;20003;-65
2024/04/20 02:29:34;;;;;;;21.02;8.43;;;4.10;99.90;;;;;;5381436;26;20000;-65
2024/04/20 02:31:59;;;;;;;24.48;8.05;;;4.00;99.90;;;;;;5381405;26;20023;-65
2024/04/20 02:34:25;;;;;;;21.17;8.65;;;4.10;99.90;;;;;;5382019;26;19988;-65
2024/04/20 02:37:09;;;;;;;12.70;7.82;;;4.20;99.90;;;;;;5381480;26;20354;-65
2024/04/20 02:39:36;;;;;;;18.13;8.05;;;4.10;99.90;;;;;;5381364;26;20381;-65
2024/04/20 02:42:03;;;;;;;17.98;8.38;;;4.10;99.90;;;;;;5384649;26;20439;-65
2024/04/20 02:44:29;;;;;;;18.65;8.40;;;4.00;99.90;;;;;;5384968;26;19992;-65
2024/04/20 02:46:55;;;;;;;21.65;7.50;;;4.00;99.90;;;;;;5385033;26;19995;-65
2024/04/20 02:49:20;;;;;;;23.35;8.95;;;3.90;99.90;;;;;;5384705;26;19992;-65
2024/04/20 02:51:46;;;;;;;18.98;8.43;;;3.90;99.90;;;;;;5384653;26;20442;-66
2024/04/20 02:54:14;;;;;;;22.15;8.85;;;3.90;99.90;;;;;;5384876;26;20034;-66
2024/04/20 02:56:39;;;;;;;20.52;8.18;;;3.90;99.90;;;;;;5384327;26;20070;-66
2024/04/20 02:59:05;;;;;;;14.85;8.38;;;3.90;99.90;;;;;;5384271;26;20000;-66
2024/04/20 03:01:30;;;;;;;17.58;8.10;;;3.90;99.90;;;;;;5384472;26;19999;-66
2024/04/20 03:03:56;;;;;;;26.73;9.27;;;3.90;99.90;;;;;;5384483;26;20047;-66
2024/04/20 03:06:23;;;;;;;23.08;8.43;;;3.90;99.90;;;;;;5384466;26;20011;-65
2024/04/20 03:08:49;;;;;;;21.77;8.00;;;3.80;99.90;;;;;;5384315;26;20079;-66
2024/04/20 03:11:17;;;;;;;18.92;8.13;;;3.80;99.90;;;;;;5384702;26;19996;-66
2024/04/20 03:13:42;;;;;;;22.00;8.07;;;3.80;99.90;;;;;;5384430;26;20325;-66
2024/04/20 03:16:08;;;;;;;17.90;8.57;;;3.70;99.90;;;;;;5384250;26;19999;-66
2024/04/20 03:18:35;;;;;;;20.80;8.07;;;3.70;99.90;;;;;;5384206;26;20086;-66
2024/04/20 03:21:02;;;;;;;22.35;8.50;;;3.80;99.90;;;;;;5384232;26;19988;-66
2024/04/20 03:23:28;;;;;;;16.60;8.27;;;3.80;99.90;;;;;;5384290;26;19992;-66
2024/04/20 03:25:54;;;;;;;19.58;8.73;;;3.70;99.90;;;;;;5384309;26;20007;-65
2024/04/20 03:28:20;;;;;;;17.20;8.82;;;3.70;99.90;;;;;;5384471;26;19998;-66
2024/04/20 03:30:45;;;;;;;22.50;8.30;;;3.70;99.90;;;;;;5383946;26;19993;-66
2024/04/20 03:33:12;;;;;;;14.25;8.75;;;3.60;99.90;;;;;;5384632;26;20450;-66
2024/04/20 03:35:38;;;;;;;22.98;9.13;;;3.40;99.90;;;;;;5384015;26;20330;-65
2024/04/20 03:38:04;;;;;;;19.23;8.40;;;3.60;99.90;;;;;;5383858;26;19992;-66
2024/04/20 03:40:29;;;;;;;25.23;8.32;;;3.60;99.90;;;;;;5383888;26;19989;-66
2024/04/20 03:42:55;;;;;;;17.23;8.30;;;3.60;99.90;;;;;;5383901;26;20007;-65
2024/04/20 03:45:20;;;;;;;15.60;8.35;;;3.60;99.90;;;;;;5383944;26;20074;-65
2024/04/20 03:47:46;;;;;;;21.98;8.57;;;3.60;99.90;;;;;;5384050;26;19988;-65
2024/04/20 03:50:11;;;;;;;21.98;9.02;;;3.50;99.90;;;;;;5383732;26;19996;-65
2024/04/20 03:52:37;;;;;;;23.15;9.60;;;3.50;99.90;;;;;;5383482;26;20576;-65
2024/04/20 03:55:03;;;;;;;22.13;9.38;;;3.50;99.90;;;;;;5384005;26;19995;-65
2024/04/20 03:57:29;;;;;;;21.05;9.23;;;3.50;99.90;;;;;;5383654;26;20034;-65
2024/04/20 03:59:55;;;;;;;21.48;9.70;;;3.50;99.90;;;;;;5383551;26;19992;-65
2024/04/20 04:02:26;;;;;;;19.35;9.10;;;3.50;99.90;;;;;;5383598;26;19992;-65
2024/04/20 04:04:52;;;;;;;14.65;9.38;;;3.50;99.90;;;;;;5383962;26;20041;-66
2024/04/20 04:07:18;;;;;;;22.40;9.90;;;3.50;99.90;;;;;;5383628;26;20330;-66
2024/04/20 04:09:43;;;;;;;21.73;9.73;;;3.30;99.90;;;;;;5383564;26;20004;-65
2024/04/20 04:12:09;;;;;;;21.70;10.18;;;3.50;99.90;;;;;;5383395;26;20000;-65
2024/04/20 04:14:35;;;;;;;20.95;10.00;;;3.50;99.90;;;;;;5383668;26;20003;-66
2024/04/20 04:17:00;;;;;;;20.92;9.35;;;3.50;99.90;;;;;;5383593;26;20469;-65
2024/04/20 04:19:26;;;;;;;26.05;9.95;;;3.50;99.90;;;;;;5383213;26;20350;-66
2024/04/20 04:21:52;;;;;;;25.83;10.38;;;3.40;99.90;;;;;;5383278;26;20024;-66
2024/04/20 04:24:17;;;;;;;22.58;9.30;;;3.40;99.90;;;;;;5383513;26;19995;-65
2024/04/20 04:26:43;;;;;;;27.80;9.55;;;2.90;99.90;;;;;;5383226;26;19999;-66
2024/04/20 04:29:08;;;;;;;28.35;9.70;;;3.30;99.90;;;;;;5383197;26;19988;-66
2024/04/20 04:31:34;;;;;;;21.42;9.75;;;3.30;99.90;;;;;;5383393;26;19992;-66
2024/04/20 04:34:00;;;;;;;26.73;9.45;;;2.70;99.90;;;;;;5383049;26;19988;-65
2024/04/20 04:36:25;;;;;;;22.92;9.75;;;3.30;99.90;;;;;;5383255;26;20579;-65
2024/04/20 04:38:51;;;;;;;22.23;9.65;;;3.30;99.90;;;;;;5383369;26;19989;-66
2024/04/20 04:41:16;;;;;;;20.05;9.63;;;3.30;99.90;;;;;;5382963;26;19992;-65
2024/04/20 04:43:42;;;;;;;27.70;10.13;;;3.20;99.90;;;;;;5383475;26;19999;-65
2024/04/20 04:46:08;;;;;;;21.42;10.57;;;2.70;99.90;;;;;;5382836;26;19992;-66
2024/04/20 04:48:34;;;;;;;20.50;10.20;;;3.10;99.90;;;;;;5382943;26;19992;-67
2024/04/20 04:50:59;;;;;;;21.08;10.85;;;3.30;99.90;;;;;;5383156;26;19992;-66
2024/04/20 04:53:25;;;;;;;24.67;11.82;;;3.20;99.90;;;;;;5382815;26;20003;-66
2024/04/20 04:55:51;;;;;;;25.35;11.52;;;3.30;99.90;;;;;;5382969;26;20316;-66
2024/04/20 04:58:16;;;;;;;22.27;12.00;;;3.30;99.90;;;;;;5382675;26;20494;-66
2024/04/20 05:00:42;;;;;;;20.30;11.38;;;3.40;99.90;;;;;;5383043;26;20001;-66
2024/04/20 05:03:07;;;;;;;19.90;11.30;;;3.50;99.90;;;;;;5382057;26;20004;-66
2024/04/20 05:05:33;;;;;;;31.75;12.05;;;3.60;99.90;;;;;;5383320;26;20005;-67
2024/04/20 05:07:59;;;;;;;23.65;11.90;;;3.00;99.90;;;;;;5383254;26;19992;-66
2024/04/20 05:10:27;;;;;;;23.65;11.60;;;3.80;99.90;;;;;;5382536;26;20042;-66
2024/04/20 05:12:53;;;;;;;27.58;11.88;;;3.90;99.90;;;;;;5382708;26;20028;-69
2024/04/20 05:15:18;;;;;;;22.15;12.52;;;3.90;99.90;;;;;;5382889;26;19988;-67
2024/04/20 05:17:44;;;;;;;29.30;13.00;;;4.00;99.90;;;;;;5382562;26;20043;-66
2024/04/20 05:20:12;;;;;;;25.65;11.80;;;4.00;99.90;;;;;;5382524;26;19988;-66
2024/04/20 05:22:38;;;;;;;28.95;12.73;;;4.10;99.90;;;;;;5382790;26;19992;-66
2024/04/20 05:25:05;;;;;;;22.45;11.68;;;3.90;99.90;;;;;;5382363;26;20014;-67
2024/04/20 05:27:30;;;;;;;21.38;11.85;;;3.90;99.90;;;;;;5382890;26;20004;-67
2024/04/20 05:29:56;;;;;;;22.35;11.75;;;4.30;99.90;;;;;;5382374;26;19992;-67
2024/04/20 05:32:21;;;;;;;21.92;11.07;;;4.30;99.90;;;;;;5382469;26;20062;-67
2024/04/20 05:34:47;;;;;;;23.02;11.32;;;4.40;99.90;;;;;;5382560;26;20499;-67
2024/04/20 05:37:13;;;;;;;21.20;11.55;;;4.40;99.90;;;;;;5382375;26;19992;-66
2024/04/20 05:39:38;;;;;;;26.90;11.27;;;4.50;99.90;;;;;;5382261;26;19988;-67
2024/04/20 05:42:04;;;;;;;23.08;10.50;;;4.50;99.90;;;;;;5382371;26;20003;-67
2024/04/20 05:44:30;;;;;;;18.70;10.00;;;4.60;99.90;;;;;;5382520;26;19999;-67
2024/04/20 05:46:56;;;;;;;21.02;9.60;;;4.70;99.90;;;;;;5382087;26;19989;-67
2024/04/20 05:49:21;;;;;;;19.45;10.30;;;4.80;99.90;;;;;;5381995;26;20506;-67
2024/04/20 05:51:47;;;;;;;26.15;10.23;;;4.80;99.90;;;;;;5382105;26;19996;-68
2024/04/20 05:54:14;;;;;;;22.25;9.00;;;4.90;99.90;;;;;;5381920;26;19993;-67
2024/04/20 05:56:40;;;;;;;19.88;9.18;;;4.90;99.90;;;;;;5382579;26;19993;-67
2024/04/20 05:59:05;;;;;;;15.60;7.55;;;5.00;99.90;;;;;;5382002;26;20003;-68
2024/04/20 06:01:31;;;;;;;18.38;7.93;;;5.00;99.90;;;;;;5382250;26;19999;-67
2024/04/20 06:03:58;;;;;;;16.40;8.57;;;5.00;99.90;;;;;;5382516;26;20000;-67
2024/04/20 06:06:23;;;;;;;14.38;7.35;;;5.10;99.90;;;;;;5382122;26;19992;-67
2024/04/20 06:08:49;;;;;;;15.93;7.93;;;5.20;99.90;;;;;;5382299;26;19996;-67
2024/04/20 06:11:15;;;;;;;13.45;6.15;;;5.20;99.90;;;;;;5382347;26;19992;-67
2024/04/20 06:13:40;;;;;;;13.65;6.78;;;5.20;99.90;;;;;;5382042;26;20003;-67
2024/04/20 06:16:06;;;;;;;13.23;6.75;;;5.20;99.90;;;;;;5386036;26;20363;-67
2024/04/20 06:18:32;;;;;;;15.15;6.60;;;5.20;99.90;;;;;;5385379;26;19999;-67
2024/04/20 06:20:57;;;;;;;13.68;6.38;;;5.30;99.90;;;;;;5385237;26;19992;-67
2024/04/20 06:23:23;;;;;;;10.45;6.32;;;5.30;99.90;;;;;;5385232;26;20058;-67
2024/04/20 06:25:48;;;;;;;12.57;6.43;;;5.30;99.90;;;;;;5385279;26;20431;-68
2024/04/20 06:28:14;;;;;;;20.30;6.15;;;5.30;99.90;;;;;;5385081;26;19996;-67
2024/04/20 06:30:40;;;;;;;16.15;6.13;;;5.40;99.90;;;;;;5385364;26;20066;-67
2024/04/20 06:33:05;;;;;;;14.43;6.43;;;5.40;99.90;;;;;;5385290;26;20004;-67
2024/04/20 06:35:31;;;;;;;11.18;6.43;;;5.40;99.90;;;;;;5385310;26;20304;-67
2024/04/20 06:37:57;;;;;;;16.35;6.25;;;5.50;99.90;;;;;;5385208;26;19992;-67
2024/04/20 06:40:22;;;;;;;10.15;5.25;;;5.60;99.90;;;;;;5384836;26;20014;-67
2024/04/20 06:42:48;;;;;;;9.95;6.10;;;5.60;99.90;;;;;;5384704;26;19988;-68
2024/04/20 06:45:14;;;;;;;12.48;5.50;;;5.60;99.90;;;;;;5384903;26;19988;-67
2024/04/20 06:47:40;;;;;;;11.60;5.63;;;5.60;99.90;;;;;;5384528;26;20322;-67
2024/04/20 06:50:07;;;;;;;9.85;5.05;;;5.70;99.90;;;;;;5384657;26;19999;-68
2024/04/20 06:52:34;;;;;;;10.90;5.40;;;5.70;99.90;;;;;;5384722;26;19989;-67
2024/04/20 06:54:59;;;;;;;11.32;5.50;;;5.70;99.90;;;;;;5384671;26;20000;-67
2024/04/20 06:57:25;;;;;;;13.23;5.53;;;5.70;99.90;;;;;;5384431;26;20315;-67
2024/04/20 06:59:50;;;;;;;12.55;5.25;;;5.80;99.90;;;;;;5384872;26;19992;-67
2024/04/20 07:02:16;;;;;;;10.27;5.25;;;5.80;99.90;;;;;;5384766;26;19992;-67
2024/04/20 07:04:42;;;;;;;8.75;4.78;;;5.80;99.90;;;;;;5384603;26;19992;-67
2024/04/20 07:07:08;;;;;;;10.10;5.35;;;5.90;99.90;;;;;;5384642;26;20004;-67
2024/04/20 07:09:34;;;;;;;10.25;4.82;;;6.00;99.90;;;;;;5384632;26;19992;-67
2024/04/20 07:11:59;;;;;;;16.42;5.53;;;6.10;99.90;;;;;;5384632;26;19993;-67
2024/04/20 07:14:25;;;;;;;10.35;4.82;;;6.30;99.90;;;;;;5384747;26;20430;-66
2024/04/20 07:16:52;;;;;;;8.40;4.85;;;6.40;99.90;;;;;;5385088;26;19988;-67
2024/04/20 07:19:18;;;;;;;10.18;4.13;;;6.50;99.90;;;;;;5384446;26;19992;-66
2024/04/20 07:21:43;;;;;;;10.63;4.40;;;6.70;99.90;;;;;;5384936;26;19999;-67
2024/04/20 07:24:09;;;;;;;13.32;3.60;;;6.80;99.90;;;;;;5384416;26;20351;-67
2024/04/20 07:26:36;;;;;;;10.43;3.72;;;7.00;99.90;;;;;;5383656;26;19992;-67
2024/04/20 07:29:02;;;;;;;7.97;3.33;;;7.00;99.90;;;;;;5384516;26;19988;-66
2024/04/20 07:31:28;;;;;;;5.88;3.25;;;7.00;99.90;;;;;;5384285;26;19993;-66
2024/04/20 07:33:53;;;;;;;8.57;3.65;;;7.10;99.90;;;;;;5384570;26;20001;-66
2024/04/20 07:36:20;;;;;;;5.80;2.63;;;7.30;99.90;;;;;;5384280;26;19996;-66
2024/04/20 07:38:46;;;;;;;6.47;2.53;;;7.40;99.90;;;;;;5384580;26;20007;-66
2024/04/20 07:41:12;;;;;;;13.50;3.03;;;7.50;99.90;;;;;;5384652;26;20007;-67
2024/04/20 07:43:37;;;;;;;7.43;2.38;;;7.70;99.90;;;;;;5384163;26;19992;-66
2024/04/20 07:46:04;;;;;;;4.55;2.53;;;7.90;99.90;;;;;;5384030;26;20002;-66
2024/04/20 07:48:29;;;;;;;5.28;2.63;;;8.20;99.90;;;;;;5383978;26;20058;-67
2024/04/20 07:50:55;;;;;;;5.80;2.25;;;8.30;99.90;;;;;;5383803;26;20000;-66
2024/04/20 07:53:21;;;;;;;4.68;1.98;;;8.40;99.90;;;;;;5383594;26;20017;-67
2024/04/20 07:55:46;;;;;;;9.30;2.10;;;8.50;99.90;;;;;;5383942;26;20003;-67
2024/04/20 07:58:13;;;;;;;4.13;1.73;;;8.60;99.90;;;;;;5383288;26;19992;-67
2024/04/20 08:00:39;;;;;;;6.32;1.95;;;8.60;95.60;;;;;;5383796;26;20319;-67
2024/04/20 08:03:05;;;;;;;3.95;1.83;;;8.80;97.10;;;;;;5383529;26;19998;-67
2024/04/20 08:05:30;;;;;;;3.25;1.55;;;8.90;63.90;;;;;;5383362;26;19992;-66
2024/04/20 08:07:56;;;;;;;2.08;1.30;;;9.00;73.80;;;;;;5383722;26;20004;-67
2024/04/20 08:10:22;;;;;;;6.28;1.88;;;;;;;;;;5383504;26;19999;-67
2024/04/20 08:12:48;;;;;;;2.85;1.50;;;10.00;41.60;;;;;;5383374;26;20003;-67
2024/04/20 08:15:14;;;;;;;2.83;1.60;;;10.10;1.00;;;;;;5383232;26;19988;-67
2024/04/20 08:17:39;;;;;;;4.95;1.50;;;9.90;1.00;;;;;;5383264;26;19996;-67
2024/04/20 08:20:06;;;;;;;3.90;1.42;;;10.00;1.00;;;;;;5383205;26;19996;-67
2024/04/20 08:22:31;;;;;;;3.92;1.23;;;10.30;5.20;;;;;;5383298;26;20039;-67
2024/04/20 08:24:57;;;;;;;4.53;1.50;;;10.20;1.00;;;;;;5383349;26;19992;-66
2024/04/20 08:27:22;;;;;;;4.80;1.45;;;10.20;1.00;;;;;;5383260;26;19992;-67
2024/04/20 08:29:48;;;;;;;3.38;1.30;;;10.10;1.00;;;;;;5383094;26;19996;-67
2024/04/20 08:32:14;;;;;;;3.70;1.52;;;10.40;1.00;;;;;;5383566;26;19992;-67
2024/04/20 08:34:39;;;;;;;3.70;1.20;;;10.50;1.00;;;;;;5383102;26;20003;-67
2024/04/20 08:37:05;;;;;;;4.93;1.65;;;10.40;1.00;;;;;;5382495;26;20312;-67
2024/04/20 08:39:30;;;;;;;5.78;1.50;;;10.70;1.00;;;;;;5382130;26;20003;-66
2024/04/20 08:44:59;;;;;;;5.40;1.80;;;12.10;99.90;;;;;;5508607;25;20417;-67
2024/04/20 08:47:24;;;;;;;3.03;1.25;;;12.20;99.90;;;;;;5508803;25;20062;-66
2024/04/20 08:49:51;;;;;;;5.82;1.73;;;12.10;99.90;;;;;;5509032;25;19989;-66
2024/04/20 08:52:17;;;;;;;2.45;1.33;;;11.80;1.00;;;;;;5508652;25;19997;-66
2024/04/20 08:54:45;;;;;;;7.35;2.15;;;11.10;91.10;;;;;;5508674;26;19990;-67
2024/04/20 08:57:12;;;;;;;3.30;1.40;;;10.60;99.90;;;;;;5509090;25;20001;-66
2024/04/20 08:59:37;;;;;;;2.92;1.77;;;10.20;99.90;;;;;;5508816;26;19998;-66
2024/04/20 09:02:05;;;;;;;3.67;1.73;;;9.60;1.00;;;;;;5508834;25;20050;-66
2024/04/20 09:04:32;;;;;;;3.33;1.70;;;9.40;1.00;;;;;;5508289;25;20026;-66
2024/04/20 09:06:58;;;;;;;6.18;1.83;;;9.30;1.00;;;;;;5508835;25;20001;-68
2024/04/20 09:09:23;;;;;;;4.82;1.65;;;9.20;1.00;;;;;;5508454;26;20412;-67
2024/04/20 09:11:49;;;;;;;5.82;1.52;;;9.00;1.00;;;;;;5508729;26;19986;-67
2024/04/20 09:14:16;;;;;;;4.25;2.20;;;8.90;4.00;;;;;;5508326;26;20351;-67
2024/04/20 09:16:42;;;;;;;3.78;1.92;;;8.90;1.00;;;;;;5508634;25;20016;-67
2024/04/20 09:19:08;;;;;;;3.30;2.08;;;9.20;31.00;;;;;;5508536;26;19990;-67
2024/04/20 09:21:34;;;;;;;4.03;1.92;;;9.30;23.60;;;;;;5508141;25;20001;-67
2024/04/20 09:24:05;;;;;;;3.22;1.63;;;9.50;1.00;;;;;;5508193;26;19990;-67
2024/04/20 09:26:30;;;;;;;3.40;1.90;;;10.00;1.00;;;;;;5508322;25;19993;-67
2024/04/20 09:28:58;;;;;;;4.72;1.80;;;10.50;1.00;;;;;;5508016;26;20327;-67
2024/04/20 09:31:27;;;;;;;3.28;1.90;;;10.50;1.00;;;;;;5508113;25;19986;-67
2024/04/20 09:33:56;;;;;;;3.42;2.10;;;10.50;1.00;;;;;;5508204;25;19996;-67
2024/04/20 09:36:22;;;;;;;3.40;1.98;;;10.30;1.00;;;;;;5508510;25;20020;-67
2024/04/20 09:38:47;;;;;;;3.78;2.10;;;10.00;1.00;;;;;;5508102;26;19993;-67
2024/04/20 09:41:15;;;;;;;4.57;2.42;;;9.30;1.00;;;;;;5507920;25;20058;-67
2024/04/20 09:43:43;;;;;;;5.13;2.67;;;;;;;;;;5508095;25;19990;-67
2024/04/20 09:46:10;;;;;;;3.22;2.42;;;8.70;85.50;;;;;;5508014;25;20349;-67
2024/04/20 09:48:38;;;;;;;5.95;3.25;;;8.20;96.00;;;;;;5508060;25;20018;-67
2024/04/20 09:51:17;;;;;;;4.88;2.60;;;8.30;99.90;;;;;;5507745;25;19989;-67
2024/04/20 09:53:53;;;;;;;5.30;2.45;;;8.40;99.90;;;;;;5508214;25;19998;-67
2024/04/20 09:56:20;;;;;;;5.20;2.63;;;8.50;99.90;;;;;;5492348;25;20357;-67
2024/04/20 09:58:47;;;;;;;6.00;2.63;;;8.40;99.90;;;;;;5492033;26;20060;-67
2024/04/20 10:01:13;;;;;;;3.40;2.13;;;8.50;95.80;;;;;;5491976;26;19990;-67
2024/04/20 10:03:40;;;;;;;4.78;2.50;;;8.10;85.30;;;;;;5492106;26;20001;-67
2024/04/20 10:06:10;;;;;;;5.25;2.60;;;8.00;99.90;;;;;;5491815;26;20058;-67
2024/04/20 10:08:38;;;;;;;4.20;2.33;;;7.80;99.90;;;;;;5492132;26;20455;-66
2024/04/20 10:11:05;;;;;;;5.95;2.78;;;8.00;99.90;;;;;;5492168;26;20297;-67
2024/04/20 10:13:33;;;;;;;4.88;2.53;;;8.00;99.90;;;;;;5491635;26;20001;-67
2024/04/20 10:16:00;;;;;;;3.55;2.50;;;8.20;99.90;;;;;;5491414;26;20062;-67
2024/04/20 10:18:26;;;;;;;5.93;2.70;;;8.30;99.90;;;;;;5491892;26;19990;-66
2024/04/20 10:20:57;;;;;;;7.82;2.72;;;8.80;99.90;;;;;;5491538;26;19996;-67
2024/04/20 10:23:24;;;;;;;5.18;2.63;;;8.80;99.90;;;;;;5491549;26;19990;-66
2024/04/20 10:25:51;;;;;;;5.22;2.53;;;9.00;99.90;;;;;;5491865;26;19998;-67
2024/04/20 10:28:35;;;;;;;7.60;2.20;;;9.10;99.90;;;;;;5491680;26;19990;-67
2024/04/20 10:31:02;;;;;;;3.90;2.03;;;9.10;73.40;;;;;;5491614;26;19994;-67
2024/04/20 10:33:31;;;;;;;6.68;2.10;;;9.30;90.80;;;;;;5491881;26;19986;-66
2024/04/20 10:36:01;;;;;;;4.07;2.05;;;9.80;71.40;;;;;;5491869;26;19997;-67
2024/04/20 10:38:30;;;;;;;3.92;1.98;;;10.90;22.40;;;;;;5491890;26;20001;-68
2024/04/20 10:40:56;;;;;;;4.50;2.00;;;11.60;1.00;;;;;;5491564;26;20458;-68
2024/04/20 10:43:23;;;;;;;6.50;1.63;;;11.90;1.00;;;;;;5491394;26;19998;-68
2024/04/20 10:46:05;;;;;;;3.95;2.10;;;12.30;1.00;;;;;;5491609;26;19986;-69
2024/04/20 10:48:32;;;;;;;3.40;1.60;;;12.60;1.00;;;;;;5491497;26;20021;-68
2024/04/20 10:50:58;;;;;;;4.88;1.92;;;12.50;1.00;;;;;;5491523;26;20005;-69
2024/04/20 10:53:27;;;;;;;3.70;2.08;;;12.20;1.00;;;;;;5491371;26;19990;-68
2024/04/20 10:55:56;;;;;;;2.83;1.77;;;12.00;1.00;;;;;;5491219;26;19986;-66
2024/04/20 10:58:25;;;;;;;4.72;1.85;;;11.50;1.00;;;;;;5491566;26;20456;-67
2024/04/20 11:00:56;;;;;;;5.70;2.35;;;11.00;1.00;;;;;;5491135;26;20362;-67
2024/04/20 11:03:22;;;;;;;4.68;1.85;;;10.20;1.00;;;;;;5454525;26;19991;-67
2024/04/20 11:05:58;;;;;;;5.28;2.35;;;9.90;1.00;;;;;;5454404;26;19995;-67
2024/04/20 11:08:24;;;;;;;3.85;1.83;;;9.80;17.70;;;;;;5454263;26;20455;-68
2024/04/20 11:10:53;;;;;;;4.88;2.08;;;9.90;19.80;;;;;;5454618;26;19995;-69
2024/04/20 11:13:19;;;;;;;3.97;1.52;;;10.40;8.90;;;;;;5454899;26;20449;-70
2024/04/20 11:15:47;;;;;;;4.03;2.03;;;10.80;1.00;;;;;;5454584;26;20001;-69
2024/04/20 11:18:14;;;;;;;5.22;1.58;;;11.20;1.00;;;;;;5454378;26;20006;-69
2024/04/20 11:20:40;;;;;;;3.47;1.65;;;10.80;1.00;;;;;;5454527;26;19991;-69
2024/04/20 11:23:06;;;;;;;2.83;1.50;;;10.30;1.00;;;;;;5454321;26;20465;-69
2024/04/20 11:25:32;;;;;;;5.47;1.50;;;10.50;1.00;;;;;;5454736;26;20071;-69
2024/04/20 11:28:00;;;;;;;3.63;1.50;;;10.80;1.00;;;;;;5454419;26;19991;-69
2024/04/20 11:30:25;;;;;;;1.50;1.30;;;11.40;1.00;;;;;;5454483;26;20023;-69
2024/04/20 11:32:57;;;;;;;4.93;1.48;;;11.70;1.00;;;;;;5454376;26;20441;-68
2024/04/20 11:35:22;;;;;;;3.67;1.23;;;12.00;99.90;;;;;;5454023;26;20063;-68
2024/04/20 11:37:48;;;;;;;4.03;1.17;;;12.70;99.90;;;;;;5454621;26;20370;-69
2024/04/20 11:40:15;;;;;;;4.22;1.20;;;12.90;5.10;;;;;;5454275;26;19990;-69
2024/04/20 11:42:43;;;;;;;2.95;0.70;;;12.50;99.90;;;;;;5453910;26;19999;-69
2024/04/20 11:45:15;;;;;;;0.65;0.50;;;12.20;99.90;;;;;;5454567;26;19999;-69
2024/04/20 11:47:41;;;;;;;1.77;0.80;;;12.40;1.00;;;;;;5454666;26;19991;-69
2024/04/20 11:50:07;;;;;;;2.35;0.50;;;12.50;1.00;;;;;;5455138;26;20040;-69
2024/04/20 11:55:19;;;;;;;2.03;0.40;;;13.10;99.90;;;;;;5454293;26;20329;-70
2024/04/20 11:57:47;;;;;;;1.50;0.60;;;13.20;99.90;;;;;;5454494;26;19999;-69
2024/04/20 12:00:14;;;;;;;1.20;0.60;;;13.30;99.90;;;;;;5454602;26;20439;-70
2024/04/20 12:02:40;;;;;;;2.60;0.65;;;13.00;99.90;;;;;;5454163;26;20006;-70
2024/04/20 12:05:06;;;;;;;1.60;0.70;;;13.70;99.90;;;;;;5454593;26;20344;-69
2024/04/20 12:07:33;;;;;;;2.38;0.57;;;13.40;99.90;;;;;;5454484;26;20001;-70
2024/04/20 12:09:59;;;;;;;1.20;0.60;;;13.20;93.90;;;;;;5453754;26;19999;-69
2024/04/20 12:12:25;;;;;;;2.05;0.70;;;13.40;99.90;;;;;;5454331;26;20349;-70
2024/04/20 12:14:50;;;;;;;1.33;0.70;;;13.50;1.00;;;;;;5453588;26;19991;-70
2024/04/20 12:17:16;;;;;;;1.10;0.75;;;13.50;1.10;;;;;;5453543;26;19991;-69
2024/04/20 12:19:46;;;;;;;2.65;0.80;;;13.40;76.70;;;;;;5453468;26;20085;-70
2024/04/20 12:22:14;;;;;;;2.78;0.60;;;13.10;46.70;;;;;;5453434;26;20006;-69
2024/04/20 12:24:40;;;;;;;1.75;1.05;;;13.30;1.00;;;;;;5453833;26;20004;-70
2024/04/20 12:27:06;;;;;;;1.08;0.80;;;12.80;1.00;;;;;;5453864;26;20445;-69
2024/04/20 12:29:31;;;;;;;1.45;0.90;;;13.00;99.90;;;;;;5453735;26;19995;-69
2024/04/20 12:32:00;;;;;;;1.77;0.73;;;12.60;99.90;;;;;;5453973;26;20010;-69
2024/04/20 12:34:26;;;;;;;3.28;0.88;;;12.50;99.90;;;;;;5453857;26;19999;-69
2024/04/20 12:36:52;;;;;;;2.20;0.93;;;11.80;99.90;;;;;;5453609;26;20035;-70
2024/04/20 12:39:18;;;;;;;1.25;0.70;;;11.40;99.90;;;;;;5453983;26;19991;-70
2024/04/20 12:41:43;;;;;;;1.27;0.70;;;11.10;1.00;;;;;;5453529;26;20067;-69
2024/04/20 12:44:10;;;;;;;1.38;0.60;;;11.10;1.00;;;;;;5453176;26;20010;-69
2024/04/20 12:46:36;;;;;;;1.15;0.60;;;11.80;99.90;;;;;;5453628;26;20011;-69
2024/04/20 12:49:02;;;;;;;1.75;0.57;;;12.20;1.00;;;;;;5453564;26;20509;-70
2024/04/20 12:51:28;;;;;;;1.10;0.45;;;12.50;38.20;;;;;;5453480;26;20476;-69